Time;durP1;ratioP1;P1;durP2;ratioP2;P2;SDS_P1;SDS_P2;PMS_P1;PMS_P2;Temp;Humidity;BMP_temperature;BMP_pressure;BME280_temperature;BME280_humidity;BME280_pressure;Samples;Min_cycle;Max_cycle;Signal;HPM_P1;HPM_P2
2023/05/30 00:00:13;;;;;;;4.73;1.70;;;;;;;;;;5017620;28;20049;-68
2023/05/30 00:02:38;;;;;;;5.70;1.77;;;;;;;;;;5026228;28;20025;-68
2023/05/30 00:05:04;;;;;;;6.27;1.90;;;;;;;;;;5030893;28;20021;-68
2023/05/30 00:07:29;;;;;;;8.02;2.17;;;;;;;;;;5030236;28;20468;-68
2023/05/30 00:09:54;;;;;;;7.15;1.92;;;;;;;;;;5030023;28;20025;-68
2023/05/30 00:12:19;;;;;;;4.68;1.70;;;;;;;;;;5017854;28;20022;-67
2023/05/30 00:14:47;;;;;;;6.63;2.17;;;;;;;;;;5029119;28;20490;-68
2023/05/30 00:17:13;;;;;;;6.18;1.98;;;;;;;;;;5018077;28;20120;-67
2023/05/30 00:19:39;;;;;;;5.97;1.70;;;;;;;;;;5023782;28;20388;-67
2023/05/30 00:22:05;;;;;;;7.07;1.73;;;;;;;;;;5029868;28;20096;-67
2023/05/30 00:24:31;;;;;;;6.55;1.85;;;;;;;;;;5030539;28;20036;-67
2023/05/30 00:26:56;;;;;;;5.47;2.00;;;;;;;;;;5026831;28;20051;-67
2023/05/30 00:29:21;;;;;;;6.70;1.90;;;;;;;;;;5021216;28;20354;-67
2023/05/30 00:31:46;;;;;;;7.57;1.90;;;;;;;;;;5025555;28;20017;-68
2023/05/30 00:34:11;;;;;;;6.47;2.00;;;;;;;;;;5018577;28;20064;-68
2023/05/30 00:36:36;;;;;;;6.95;2.13;;;;;;;;;;5034958;28;20036;-68
2023/05/30 00:39:02;;;;;;;7.43;2.28;;;;;;;;;;5019475;28;20040;-69
2023/05/30 00:41:27;;;;;;;6.33;1.90;;;;;;;;;;5016041;28;20029;-68
2023/05/30 00:43:52;;;;;;;7.05;2.13;;;;;;;;;;5015254;28;21023;-68
2023/05/30 00:46:18;;;;;;;4.90;1.83;;;;;;;;;;5018026;28;20500;-68
2023/05/30 00:48:43;;;;;;;7.95;2.15;;;;;;;;;;5024588;28;20022;-68
2023/05/30 00:51:10;;;;;;;5.83;1.70;;;;;;;;;;5027837;28;20036;-68
2023/05/30 00:53:36;;;;;;;7.28;2.00;;;;;;;;;;5022061;28;20335;-69
2023/05/30 00:56:02;;;;;;;6.68;2.00;;;;;;;;;;5026501;28;20029;-68
2023/05/30 00:58:27;;;;;;;6.27;1.80;;;;;;;;;;5024810;28;20021;-68
2023/05/30 01:00:53;;;;;;;6.17;1.90;;;;;;;;;;5018479;28;20045;-68
2023/05/30 01:03:22;;;;;;;5.38;1.95;;;;;;;;;;5022505;28;20029;-68
2023/05/30 01:05:47;;;;;;;6.47;1.80;;;;;;;;;;5020870;28;20013;-68
2023/05/30 01:08:12;;;;;;;7.30;2.03;;;;;;;;;;5016397;28;20517;-70
2023/05/30 01:10:38;;;;;;;5.77;2.20;;;;;;;;;;5020214;28;20029;-68
2023/05/30 01:13:14;;;;;;;6.77;2.03;;;;;;;;;;5016792;28;20026;-68
2023/05/30 01:15:42;;;;;;;7.45;2.25;;;;;;;;;;5018722;28;20113;-68
2023/05/30 01:18:19;;;;;;;5.65;2.10;;;;;;;;;;5023973;28;20463;-68
2023/05/30 01:20:49;;;;;;;5.85;2.08;;;;;;;;;;5021380;28;20433;-68
2023/05/30 01:23:23;;;;;;;6.47;1.92;;;;;;;;;;5023479;28;20515;-68
2023/05/30 01:26:18;;;;;;;6.40;1.77;;;;;;;;;;5012850;28;20021;-68
2023/05/30 01:28:45;;;;;;;5.50;1.88;;;;;;;;;;5010022;28;20029;-68
2023/05/30 01:31:10;;;;;;;5.32;1.90;;;;;;;;;;5019171;28;20025;-67
2023/05/30 01:33:36;;;;;;;5.13;1.83;;;;;;;;;;5021271;28;20089;-68
2023/05/30 01:36:01;;;;;;;6.40;1.90;;;;;;;;;;5023529;28;20471;-67
2023/05/30 01:38:26;;;;;;;6.33;2.10;;;;;;;;;;5026775;28;20028;-67
2023/05/30 01:40:53;;;;;;;6.50;2.00;;;;;;;;;;5024691;28;20017;-66
2023/05/30 01:43:23;;;;;;;6.00;1.85;;;;;;;;;;5019841;28;20105;-67
2023/05/30 01:45:52;;;;;;;6.07;1.90;;;;;;;;;;5023971;28;20064;-67
2023/05/30 01:48:29;;;;;;;8.63;2.20;;;;;;;;;;5008942;28;20025;-66
2023/05/30 01:50:55;;;;;;;5.75;2.00;;;;;;;;;;5018496;28;20025;-66
2023/05/30 01:53:31;;;;;;;5.97;2.20;;;;;;;;;;5015941;28;20035;-66
2023/05/30 01:55:58;;;;;;;6.35;2.13;;;;;;;;;;5020851;28;20037;-66
2023/05/30 01:58:23;;;;;;;9.35;2.20;;;;;;;;;;5018003;28;20087;-67
2023/05/30 02:00:49;;;;;;;7.47;2.00;;;;;;;;;;5026308;28;20596;-67
2023/05/30 02:03:15;;;;;;;6.07;2.30;;;;;;;;;;5012605;28;20029;-67
2023/05/30 02:05:40;;;;;;;9.65;2.35;;;;;;;;;;5022931;28;20026;-66
2023/05/30 02:08:05;;;;;;;6.85;2.42;;;;;;;;;;5018821;28;20075;-66
2023/05/30 02:10:30;;;;;;;11.00;2.50;;;;;;;;;;5015629;28;20034;-66
2023/05/30 02:12:55;;;;;;;7.63;2.10;;;;;;;;;;5024989;28;20037;-66
2023/05/30 02:15:21;;;;;;;8.77;1.88;;;;;;;;;;5015611;28;20037;-66
2023/05/30 02:17:46;;;;;;;7.37;1.90;;;;;;;;;;5021004;28;20060;-67
2023/05/30 02:20:11;;;;;;;6.95;2.17;;;;;;;;;;5018396;28;20366;-67
2023/05/30 02:22:36;;;;;;;8.90;1.90;;;;;;;;;;5021021;28;20116;-67
2023/05/30 02:25:02;;;;;;;7.70;2.27;;;;;;;;;;5016106;28;20356;-67
2023/05/30 02:27:27;;;;;;;6.60;2.08;;;;;;;;;;5023947;28;20527;-67
2023/05/30 02:29:52;;;;;;;7.85;2.08;;;;;;;;;;5018631;28;20033;-66
2023/05/30 02:32:17;;;;;;;5.15;1.65;;;;;;;;;;5019113;28;20025;-67
2023/05/30 02:34:42;;;;;;;6.28;1.98;;;;;;;;;;5020224;28;20046;-68
2023/05/30 02:37:08;;;;;;;9.32;2.38;;;;;;;;;;5027008;28;20041;-68
2023/05/30 02:39:33;;;;;;;7.17;1.90;;;;;;;;;;5020272;28;20033;-69
2023/05/30 02:41:58;;;;;;;7.82;2.20;;;;;;;;;;5027148;28;20036;-68
2023/05/30 02:44:23;;;;;;;6.37;1.87;;;;;;;;;;5037580;28;20481;-68
2023/05/30 02:46:48;;;;;;;6.30;2.05;;;;;;;;;;5015617;28;20017;-68
2023/05/30 02:49:13;;;;;;;6.55;2.08;;;;;;;;;;5014009;28;20112;-68
2023/05/30 02:51:41;;;;;;;7.07;2.00;;;;;;;;;;5030045;28;20441;-68
2023/05/30 02:54:06;;;;;;;8.70;2.42;;;;;;;;;;5027681;28;20053;-68
2023/05/30 02:56:31;;;;;;;7.68;2.20;;;;;;;;;;5020598;28;20485;-68
2023/05/30 02:58:58;;;;;;;9.57;2.43;;;;;;;;;;5024106;28;20029;-68
2023/05/30 03:01:23;;;;;;;7.70;2.30;;;;;;;;;;5025747;28;20032;-68
2023/05/30 03:03:48;;;;;;;6.57;2.25;;;;;;;;;;5028102;28;20096;-67
2023/05/30 03:06:14;;;;;;;7.77;2.20;;;;;;;;;;5020870;28;20010;-68
2023/05/30 03:08:41;;;;;;;8.00;2.40;;;;;;;;;;5029785;28;20124;-68
2023/05/30 03:11:06;;;;;;;6.43;2.10;;;;;;;;;;5016823;28;20072;-68
2023/05/30 03:13:31;;;;;;;8.50;2.08;;;;;;;;;;5024849;28;20427;-67
2023/05/30 03:15:56;;;;;;;7.40;2.58;;;;;;;;;;5024526;28;20079;-68
2023/05/30 03:18:22;;;;;;;8.27;2.10;;;;;;;;;;5017139;28;20466;-68
2023/05/30 03:20:47;;;;;;;6.27;1.83;;;;;;;;;;5014862;28;20025;-68
2023/05/30 03:23:12;;;;;;;7.90;2.53;;;;;;;;;;5030323;28;20370;-68
2023/05/30 03:25:37;;;;;;;9.30;2.35;;;;;;;;;;5031118;28;20408;-68
2023/05/30 03:28:06;;;;;;;7.38;2.25;;;;;;;;;;5017775;28;20358;-68
2023/05/30 03:30:31;;;;;;;7.07;2.40;;;;;;;;;;5022098;28;20022;-68
2023/05/30 03:32:56;;;;;;;8.35;2.17;;;;;;;;;;5019145;28;20024;-67
2023/05/30 03:35:22;;;;;;;6.57;2.15;;;;;;;;;;5023742;28;20018;-67
2023/05/30 03:37:47;;;;;;;8.10;2.30;;;;;;;;;;5016238;28;20413;-67
2023/05/30 03:40:12;;;;;;;10.40;2.47;;;;;;;;;;5015737;28;20184;-67
2023/05/30 03:42:37;;;;;;;9.87;2.43;;;;;;;;;;5023461;28;20076;-67
2023/05/30 03:45:02;;;;;;;6.85;2.20;;;;;;;;;;5017164;28;20018;-67
2023/05/30 03:47:27;;;;;;;10.47;2.10;;;;;;;;;;5011889;28;20033;-68
2023/05/30 03:49:53;;;;;;;6.13;2.10;;;;;;;;;;5013195;28;20461;-68
2023/05/30 03:52:18;;;;;;;5.97;2.10;;;;;;;;;;5027919;28;20080;-67
2023/05/30 03:54:44;;;;;;;7.43;2.20;;;;;;;;;;5023792;28;20027;-68
2023/05/30 03:57:09;;;;;;;10.07;2.47;;;;;;;;;;5025855;28;20044;-67
2023/05/30 03:59:34;;;;;;;6.60;1.90;;;;;;;;;;5016004;28;20026;-68
2023/05/30 04:01:59;;;;;;;7.07;2.20;;;;;;;;;;5019125;28;20497;-67
2023/05/30 04:04:26;;;;;;;8.75;2.10;;;;;;;;;;5031822;28;20052;-67
2023/05/30 04:06:51;;;;;;;8.15;2.08;;;;;;;;;;5033755;28;20452;-68
2023/05/30 04:09:16;;;;;;;10.80;2.28;;;;;;;;;;5026631;28;20046;-68
2023/05/30 04:11:41;;;;;;;6.72;2.00;;;;;;;;;;5024004;28;20020;-68
2023/05/30 04:14:06;;;;;;;8.20;1.93;;;;;;;;;;5018796;28;20022;-68
2023/05/30 04:16:31;;;;;;;9.70;1.70;;;;;;;;;;5023638;28;20579;-68
2023/05/30 04:18:57;;;;;;;8.10;2.10;;;;;;;;;;5020250;28;20025;-67
2023/05/30 04:21:22;;;;;;;8.57;2.33;;;;;;;;;;5011911;28;20117;-68
2023/05/30 04:23:47;;;;;;;7.40;1.80;;;;;;;;;;5017744;28;20417;-68
2023/05/30 04:26:12;;;;;;;9.88;1.98;;;;;;;;;;5024221;28;20144;-67
2023/05/30 04:28:44;;;;;;;7.93;2.10;;;;;;;;;;5027431;28;20495;-68
2023/05/30 04:31:10;;;;;;;10.52;2.47;;;;;;;;;;5015528;28;20488;-67
2023/05/30 04:33:35;;;;;;;7.90;2.03;;;;;;;;;;5024893;28;20163;-67
2023/05/30 04:36:18;;;;;;;9.60;2.08;;;;;;;;;;5021202;28;20128;-67
2023/05/30 04:38:44;;;;;;;6.75;2.22;;;;;;;;;;5019447;28;20030;-67
2023/05/30 04:41:10;;;;;;;9.55;2.40;;;;;;;;;;5011007;28;20572;-69
2023/05/30 04:43:35;;;;;;;11.40;2.28;;;;;;;;;;5018328;28;20548;-68
2023/05/30 04:46:00;;;;;;;12.13;2.53;;;;;;;;;;5016943;28;20057;-68
2023/05/30 04:48:28;;;;;;;9.02;2.33;;;;;;;;;;5023549;28;20473;-68
2023/05/30 04:50:53;;;;;;;8.98;2.20;;;;;;;;;;5022123;28;20100;-66
2023/05/30 04:53:20;;;;;;;8.75;2.10;;;;;;;;;;5010695;28;20156;-68
2023/05/30 04:55:45;;;;;;;8.43;2.53;;;;;;;;;;5011236;28;20076;-68
2023/05/30 04:58:11;;;;;;;9.03;2.30;;;;;;;;;;5021982;28;20070;-69
2023/05/30 05:00:36;;;;;;;11.95;2.72;;;;;;;;;;5013740;28;20026;-68
2023/05/30 05:03:02;;;;;;;12.07;2.43;;;;;;;;;;5024203;28;20028;-68
2023/05/30 05:05:27;;;;;;;10.52;2.45;;;;;;;;;;5017993;28;20014;-66
2023/05/30 05:07:52;;;;;;;12.57;2.50;;;;;;;;;;5018396;28;20021;-65
2023/05/30 05:10:18;;;;;;;7.18;2.35;;;;;;;;;;5010022;28;20033;-66
2023/05/30 05:12:43;;;;;;;7.28;2.10;;;;;;;;;;5017888;28;20030;-67
2023/05/30 05:15:09;;;;;;;10.73;2.20;;;;;;;;;;5014542;28;20029;-66
2023/05/30 05:17:34;;;;;;;9.77;2.28;;;;;;;;;;5018404;28;20060;-66
2023/05/30 05:20:00;;;;;;;10.45;2.47;;;;;;;;;;5026557;28;20018;-67
2023/05/30 05:22:26;;;;;;;9.77;2.30;;;;;;;;;;5010832;28;20042;-66
2023/05/30 05:24:51;;;;;;;10.02;2.33;;;;;;;;;;5009491;28;20117;-67
2023/05/30 05:27:16;;;;;;;7.35;2.17;;;;;;;;;;5017188;28;20470;-66
2023/05/30 05:29:41;;;;;;;9.88;2.47;;;;;;;;;;5020278;28;20060;-66
2023/05/30 05:32:06;;;;;;;7.25;2.22;;;;;;;;;;5024312;28;20025;-65
2023/05/30 05:34:32;;;;;;;6.65;1.98;;;;;;;;;;5023924;28;20033;-66
2023/05/30 05:36:57;;;;;;;8.57;2.10;;;;;;;;;;5018012;28;20059;-67
2023/05/30 05:39:22;;;;;;;7.05;2.22;;;;;;;;;;5017703;28;20029;-67
2023/05/30 05:41:47;;;;;;;8.65;2.00;;;;;;;;;;5017669;28;20148;-67
2023/05/30 05:44:12;;;;;;;6.70;2.10;;;;;;;;;;5020670;28;20554;-67
2023/05/30 05:46:37;;;;;;;7.30;1.90;;;;;;;;;;5022551;28;20032;-67
2023/05/30 05:49:03;;;;;;;8.15;1.90;;;;;;;;;;5022064;28;20104;-67
2023/05/30 05:51:28;;;;;;;7.57;2.00;;;;;;;;;;5019332;28;20028;-66
2023/05/30 05:53:53;;;;;;;6.95;1.80;;;;;;;;;;5010627;28;20022;-67
2023/05/30 05:56:21;;;;;;;7.63;1.93;;;;;;;;;;5020420;28;20074;-67
2023/05/30 05:58:46;;;;;;;8.68;2.28;;;;;;;;;;5015723;28;20091;-67
2023/05/30 06:01:11;;;;;;;8.70;2.00;;;;;;;;;;5016629;28;20486;-68
2023/05/30 06:03:37;;;;;;;6.65;1.90;;;;;;;;;;5021395;28;20025;-67
2023/05/30 06:06:02;;;;;;;8.25;1.77;;;;;;;;;;5018494;28;20021;-68
2023/05/30 06:08:27;;;;;;;7.23;2.10;;;;;;;;;;5018587;28;20465;-67
2023/05/30 06:10:52;;;;;;;6.50;1.75;;;;;;;;;;5018110;28;20021;-66
2023/05/30 06:13:17;;;;;;;8.77;2.13;;;;;;;;;;5007022;28;20029;-66
2023/05/30 06:15:42;;;;;;;8.77;2.00;;;;;;;;;;5014801;28;20014;-66
2023/05/30 06:18:07;;;;;;;6.97;2.00;;;;;;;;;;5026021;28;20557;-66
2023/05/30 06:20:33;;;;;;;6.60;1.80;;;;;;;;;;5024364;28;20049;-66
2023/05/30 06:22:58;;;;;;;6.87;1.93;;;;;;;;;;5017983;28;20400;-66
2023/05/30 06:25:25;;;;;;;9.60;1.90;;;;;;;;;;5020779;28;20108;-66
2023/05/30 06:27:51;;;;;;;6.32;1.60;;;;;;;;;;5019535;28;20021;-66
2023/05/30 06:30:16;;;;;;;7.07;2.13;;;;;;;;;;5026257;28;20082;-66
2023/05/30 06:32:41;;;;;;;6.47;1.92;;;;;;;;;;5025199;28;20034;-67
2023/05/30 06:35:06;;;;;;;7.55;1.52;;;;;;;;;;5022784;28;20022;-66
2023/05/30 06:37:32;;;;;;;4.53;1.50;;;;;;;;;;5028871;28;20252;-66
2023/05/30 06:39:57;;;;;;;6.60;1.60;;;;;;;;;;5014644;28;20040;-65
2023/05/30 06:42:22;;;;;;;5.37;1.70;;;;;;;;;;5034533;28;20429;-66
2023/05/30 06:44:47;;;;;;;4.28;1.42;;;;;;;;;;5028068;28;20033;-66
2023/05/30 06:47:12;;;;;;;6.32;1.50;;;;;;;;;;5028881;28;20028;-66
2023/05/30 06:49:37;;;;;;;6.28;1.70;;;;;;;;;;5024193;28;20511;-66
2023/05/30 06:52:02;;;;;;;7.27;1.60;;;;;;;;;;5019027;28;20021;-66
2023/05/30 06:54:28;;;;;;;6.10;1.87;;;;;;;;;;5016255;28;20509;-66
2023/05/30 06:56:53;;;;;;;5.50;1.40;;;;;;;;;;5030788;28;20052;-66
2023/05/30 06:59:18;;;;;;;5.00;1.60;;;;;;;;;;5022943;28;20040;-65
2023/05/30 07:01:44;;;;;;;4.78;1.40;;;;;;;;;;5024428;28;20026;-66
2023/05/30 07:04:09;;;;;;;6.88;1.50;;;;;;;;;;5030506;28;20026;-65
2023/05/30 07:06:35;;;;;;;7.45;1.17;;;;;;;;;;5030416;28;20021;-66
2023/05/30 07:09:00;;;;;;;7.15;1.58;;;;;;;;;;5020070;28;20040;-66
2023/05/30 07:11:26;;;;;;;7.67;1.30;;;;;;;;;;5021480;28;20092;-66
2023/05/30 07:13:51;;;;;;;6.43;1.10;;;;;;;;;;5028703;28;20491;-66
2023/05/30 07:16:16;;;;;;;5.47;1.20;;;;;;;;;;5023072;28;20053;-66
2023/05/30 07:18:41;;;;;;;6.60;1.33;;;;;;;;;;5022620;28;20100;-65
2023/05/30 07:21:07;;;;;;;7.15;1.35;;;;;;;;;;5030373;28;20025;-66
2023/05/30 07:23:33;;;;;;;5.03;1.00;;;;;;;;;;5028365;28;20017;-64
2023/05/30 07:25:58;;;;;;;5.55;1.10;;;;;;;;;;5022940;28;20109;-65
2023/05/30 07:28:23;;;;;;;4.83;1.20;;;;;;;;;;5019039;28;20499;-64
2023/05/30 07:30:48;;;;;;;5.27;1.13;;;;;;;;;;5027448;28;20025;-64
2023/05/30 07:33:13;;;;;;;6.30;1.00;;;;;;;;;;5024713;28;20018;-64
2023/05/30 07:35:39;;;;;;;4.05;0.90;;;;;;;;;;5021994;28;20083;-64
2023/05/30 07:38:04;;;;;;;4.87;1.03;;;;;;;;;;5022277;28;20494;-65
2023/05/30 07:40:29;;;;;;;4.78;1.23;;;;;;;;;;5022735;28;20037;-65
2023/05/30 07:42:54;;;;;;;3.58;0.93;;;;;;;;;;5029144;28;20115;-65
2023/05/30 07:45:20;;;;;;;4.80;1.10;;;;;;;;;;5025536;28;20061;-66
2023/05/30 07:47:45;;;;;;;4.70;0.90;;;;;;;;;;5028251;28;20534;-66
2023/05/30 07:50:10;;;;;;;5.72;1.10;;;;;;;;;;5022205;28;20337;-65
2023/05/30 07:52:35;;;;;;;3.93;1.00;;;;;;;;;;5024200;28;20030;-65
2023/05/30 07:55:01;;;;;;;3.43;0.77;;;;;;;;;;5022404;28;20044;-66
2023/05/30 07:57:26;;;;;;;3.30;0.85;;;;;;;;;;5024912;28;20065;-66
2023/05/30 07:59:51;;;;;;;3.83;0.90;;;;;;;;;;5026195;28;20095;-66
2023/05/30 08:02:16;;;;;;;5.63;0.88;;;;;;;;;;5022499;28;20500;-65
2023/05/30 08:04:41;;;;;;;6.22;1.00;;;;;;;;;;5018147;28;20057;-66
2023/05/30 08:07:07;;;;;;;4.22;1.02;;;;;;;;;;5019070;28;20096;-65
2023/05/30 08:09:32;;;;;;;5.53;1.23;;;;;;;;;;5019626;28;20084;-66
2023/05/30 08:11:58;;;;;;;5.53;1.20;;;;;;;;;;5020199;28;20448;-63
2023/05/30 08:14:23;;;;;;;4.65;1.13;;;;;;;;;;5027989;28;20646;-66
2023/05/30 08:16:48;;;;;;;4.60;1.10;;;;;;;;;;5030933;28;20057;-66
2023/05/30 08:19:13;;;;;;;3.95;0.82;;;;;;;;;;5024483;28;20041;-65
2023/05/30 08:21:38;;;;;;;3.00;1.00;;;;;;;;;;5024343;28;20019;-66
2023/05/30 08:24:04;;;;;;;5.90;1.43;;;;;;;;;;5029135;28;20029;-62
2023/05/30 08:26:32;;;;;;;6.03;1.00;;;;;;;;;;5026555;28;20052;-64
2023/05/30 08:28:57;;;;;;;6.15;1.40;;;;;;;;;;5020504;28;20056;-65
2023/05/30 08:31:23;;;;;;;5.57;1.30;;;;;;;;;;5025506;28;20041;-66
2023/05/30 08:33:48;;;;;;;3.45;1.00;;;;;;;;;;5028972;28;20075;-66
2023/05/30 08:36:13;;;;;;;5.80;1.23;;;;;;;;;;5021258;28;20033;-66
2023/05/30 08:38:38;;;;;;;4.68;1.08;;;;;;;;;;5026813;28;20037;-65
2023/05/30 08:41:04;;;;;;;4.77;1.10;;;;;;;;;;5027572;28;20496;-65
2023/05/30 08:43:29;;;;;;;6.17;1.07;;;;;;;;;;5022689;28;20025;-67
2023/05/30 08:45:55;;;;;;;5.07;1.20;;;;;;;;;;5025780;28;20628;-65
2023/05/30 08:48:23;;;;;;;5.95;1.27;;;;;;;;;;5021796;28;20036;-66
2023/05/30 08:50:48;;;;;;;4.50;1.10;;;;;;;;;;5030361;28;20080;-66
2023/05/30 08:53:16;;;;;;;5.13;1.35;;;;;;;;;;5023178;28;20025;-65
2023/05/30 08:55:43;;;;;;;5.90;1.20;;;;;;;;;;5028698;28;20032;-64
2023/05/30 08:58:29;;;;;;;6.05;1.40;;;;;;;;;;5031002;28;20020;-63
2023/05/30 09:00:54;;;;;;;5.15;1.20;;;;;;;;;;5028433;28;20021;-63
2023/05/30 09:03:20;;;;;;;6.67;1.20;;;;;;;;;;5027135;28;20112;-64
2023/05/30 09:05:45;;;;;;;4.10;0.98;;;;;;;;;;5022277;28;20812;-63
2023/05/30 09:08:12;;;;;;;5.25;1.30;;;;;;;;;;5031404;28;20018;-64
2023/05/30 09:10:41;;;;;;;4.57;1.15;;;;;;;;;;5023441;28;20022;-64
2023/05/30 09:13:06;;;;;;;3.97;1.10;;;;;;;;;;5024766;28;20021;-66
2023/05/30 09:15:31;;;;;;;3.97;1.10;;;;;;;;;;5028410;28;20025;-66
2023/05/30 09:17:56;;;;;;;4.90;1.00;;;;;;;;;;5030459;28;20120;-65
2023/05/30 09:20:22;;;;;;;4.78;1.05;;;;;;;;;;5019445;28;20101;-65
2023/05/30 09:22:47;;;;;;;6.68;1.08;;;;;;;;;;5029960;28;20022;-65
2023/05/30 09:25:14;;;;;;;4.83;1.00;;;;;;;;;;5026776;28;20018;-69
2023/05/30 09:27:40;;;;;;;5.07;1.00;;;;;;;;;;5027953;28;20033;-64
2023/05/30 09:30:06;;;;;;;4.10;1.00;;;;;;;;;;5023388;28;20037;-66
2023/05/30 09:32:36;;;;;;;5.80;1.20;;;;;;;;;;5019359;28;20433;-66
2023/05/30 09:35:03;;;;;;;5.25;1.10;;;;;;;;;;5026887;28;20029;-66
2023/05/30 09:37:35;;;;;;;4.72;1.10;;;;;;;;;;5033040;28;20034;-66
2023/05/30 09:40:07;;;;;;;3.92;1.02;;;;;;;;;;5018203;28;20032;-67
2023/05/30 09:42:38;;;;;;;4.10;1.10;;;;;;;;;;5026272;28;20021;-66
2023/05/30 09:45:13;;;;;;;6.07;1.20;;;;;;;;;;5033467;28;20155;-63
2023/05/30 09:47:39;;;;;;;5.47;1.48;;;;;;;;;;5022668;28;20164;-65
2023/05/30 09:50:06;;;;;;;4.60;1.10;;;;;;;;;;5028418;28;20476;-66
2023/05/30 09:52:31;;;;;;;4.60;1.20;;;;;;;;;;5033395;28;20538;-65
2023/05/30 09:54:56;;;;;;;4.68;1.10;;;;;;;;;;5020472;28;20040;-66
2023/05/30 09:57:23;;;;;;;4.47;1.00;;;;;;;;;;5023567;28;20115;-66
2023/05/30 09:59:49;;;;;;;5.60;1.05;;;;;;;;;;5031831;28;20076;-66
2023/05/30 10:02:20;;;;;;;4.50;1.10;;;;;;;;;;5034182;28;20420;-65
2023/05/30 10:04:47;;;;;;;5.22;1.20;;;;;;;;;;5031604;28;20048;-66
2023/05/30 10:07:14;;;;;;;3.78;1.00;;;;;;;;;;5034103;28;20024;-66
2023/05/30 10:09:39;;;;;;;4.70;1.20;;;;;;;;;;5031728;28;20416;-66
2023/05/30 10:12:04;;;;;;;3.97;1.00;;;;;;;;;;5030082;28;20024;-66
2023/05/30 10:14:29;;;;;;;7.05;1.20;;;;;;;;;;5028176;28;20021;-66
2023/05/30 10:17:04;;;;;;;3.85;1.10;;;;;;;;;;5025213;28;20028;-66
2023/05/30 10:19:30;;;;;;;3.63;1.02;;;;;;;;;;5031293;28;20025;-66
2023/05/30 10:21:55;;;;;;;4.20;1.08;;;;;;;;;;5023940;28;20017;-66
2023/05/30 10:24:21;;;;;;;4.53;1.05;;;;;;;;;;5030660;28;20029;-66
2023/05/30 10:26:53;;;;;;;4.35;1.30;;;;;;;;;;5027872;28;20547;-66
2023/05/30 10:29:19;;;;;;;4.40;1.20;;;;;;;;;;5032918;28;20053;-66
2023/05/30 10:31:44;;;;;;;4.93;1.20;;;;;;;;;;5022075;28;20022;-66
2023/05/30 10:34:11;;;;;;;5.13;1.27;;;;;;;;;;5022956;28;20027;-66
2023/05/30 10:36:41;;;;;;;3.92;1.10;;;;;;;;;;5027151;28;20122;-66
2023/05/30 10:39:13;;;;;;;4.05;1.10;;;;;;;;;;5025222;28;20104;-66
2023/05/30 10:41:48;;;;;;;3.38;0.80;;;;;;;;;;5033414;28;20358;-66
2023/05/30 10:44:32;;;;;;;4.43;1.20;;;;;;;;;;5033339;28;20015;-65
2023/05/30 10:47:15;;;;;;;4.95;1.10;;;;;;;;;;5031865;28;20030;-66
2023/05/30 10:49:40;;;;;;;4.60;1.27;;;;;;;;;;5016225;28;20028;-66
2023/05/30 10:52:06;;;;;;;4.47;1.10;;;;;;;;;;5023430;28;20014;-66
2023/05/30 10:54:32;;;;;;;5.88;1.17;;;;;;;;;;5027705;28;20032;-66
2023/05/30 10:56:58;;;;;;;4.28;1.10;;;;;;;;;;5032710;28;20392;-66
2023/05/30 10:59:24;;;;;;;4.00;1.20;;;;;;;;;;5032432;28;20029;-66
2023/05/30 11:02:00;;;;;;;4.30;1.10;;;;;;;;;;5028543;28;20056;-66
2023/05/30 11:04:34;;;;;;;4.95;1.13;;;;;;;;;;5029048;28;20036;-66
2023/05/30 11:07:01;;;;;;;4.78;0.95;;;;;;;;;;5028220;28;20125;-66
2023/05/30 11:09:27;;;;;;;8.38;1.30;;;;;;;;;;5027679;28;20026;-66
2023/05/30 11:11:52;;;;;;;5.40;1.20;;;;;;;;;;5024988;28;20527;-67
2023/05/30 11:14:23;;;;;;;4.47;1.02;;;;;;;;;;5021733;28;20103;-66
2023/05/30 11:16:54;;;;;;;4.50;1.10;;;;;;;;;;5028361;28;20122;-66
2023/05/30 11:19:20;;;;;;;7.90;1.25;;;;;;;;;;5026458;28;20344;-65
2023/05/30 11:21:52;;;;;;;3.63;0.90;;;;;;;;;;5023445;28;20033;-64
2023/05/30 11:24:20;;;;;;;6.38;1.23;;;;;;;;;;5029960;28;20124;-66
2023/05/30 11:26:52;;;;;;;6.40;1.30;;;;;;;;;;5030715;28;20416;-66
2023/05/30 11:29:36;;;;;;;5.57;1.30;;;;;;;;;;5020659;28;20026;-66
2023/05/30 11:32:03;;;;;;;5.15;1.00;;;;;;;;;;5031945;28;20021;-66
2023/05/30 11:34:28;;;;;;;4.90;1.10;;;;;;;;;;5020618;28;20457;-66
2023/05/30 11:36:55;;;;;;;5.25;1.20;;;;;;;;;;5019190;28;20091;-66
2023/05/30 11:39:21;;;;;;;3.78;1.00;;;;;;;;;;5030315;28;20033;-67
2023/05/30 11:41:46;;;;;;;5.55;1.30;;;;;;;;;;5030211;28;20018;-66
2023/05/30 11:44:13;;;;;;;5.32;1.00;;;;;;;;;;5022266;28;20041;-66
2023/05/30 11:46:38;;;;;;;4.70;1.13;;;;;;;;;;5031614;28;20480;-66
2023/05/30 11:49:04;;;;;;;3.60;1.02;;;;;;;;;;5031989;28;20032;-66
2023/05/30 11:51:30;;;;;;;3.85;0.98;;;;;;;;;;5033981;28;20113;-66
2023/05/30 11:53:55;;;;;;;7.93;1.58;;;;;;;;;;5012713;28;20057;-66
2023/05/30 11:56:20;;;;;;;5.80;1.50;;;;;;;;;;5012336;28;20044;-66
2023/05/30 11:58:49;;;;;;;4.80;0.98;;;;;;;;;;5014436;28;20033;-65
2023/05/30 12:01:14;;;;;;;6.13;1.30;;;;;;;;;;5030126;28;20550;-66
2023/05/30 12:03:40;;;;;;;5.40;1.30;;;;;;;;;;5022559;28;20116;-66
2023/05/30 12:06:12;;;;;;;9.07;1.50;;;;;;;;;;5032282;28;20029;-65
2023/05/30 12:08:45;;;;;;;5.93;1.10;;;;;;;;;;5023615;28;20021;-64
2023/05/30 12:11:11;;;;;;;6.35;1.30;;;;;;;;;;5031625;28;20021;-65
2023/05/30 12:13:36;;;;;;;4.03;1.10;;;;;;;;;;5032027;28;20032;-64
2023/05/30 12:16:01;;;;;;;5.03;1.20;;;;;;;;;;5018054;28;20033;-65
2023/05/30 12:18:26;;;;;;;4.78;1.42;;;;;;;;;;5026983;28;20072;-65
2023/05/30 12:20:52;;;;;;;4.50;1.23;;;;;;;;;;5029765;28;20401;-66
2023/05/30 12:23:22;;;;;;;4.93;1.30;;;;;;;;;;5017084;28;20029;-65
2023/05/30 12:25:54;;;;;;;4.72;1.20;;;;;;;;;;5030906;28;20155;-65
2023/05/30 12:28:19;;;;;;;5.10;1.40;;;;;;;;;;5031667;28;20059;-66
2023/05/30 12:30:45;;;;;;;4.13;1.13;;;;;;;;;;5037660;28;20029;-66
2023/05/30 12:33:13;;;;;;;6.20;1.10;;;;;;;;;;5024368;28;20032;-66
2023/05/30 12:35:39;;;;;;;4.22;1.13;;;;;;;;;;5037658;28;20444;-66
2023/05/30 12:38:05;;;;;;;;;;;;;;;;;;5028804;28;20041;-66
2023/05/30 12:40:31;;;;;;;4.43;1.40;;;;;;;;;;5021847;28;19909;-66
2023/05/30 12:42:56;;;;;;;3.65;1.02;;;;;;;;;;5030279;28;20021;-66
2023/05/30 12:45:22;;;;;;;7.30;1.45;;;;;;;;;;5028117;28;20105;-66
2023/05/30 12:47:47;;;;;;;5.70;1.20;;;;;;;;;;5038952;28;20017;-65
2023/05/30 12:50:12;;;;;;;4.22;1.25;;;;;;;;;;5029720;28;20013;-65
2023/05/30 12:52:37;;;;;;;4.30;1.10;;;;;;;;;;5033452;28;20444;-66
2023/05/30 12:55:02;;;;;;;5.97;1.20;;;;;;;;;;5028247;28;20052;-65
2023/05/30 12:57:28;;;;;;;5.47;1.37;;;;;;;;;;5024752;28;20042;-65
2023/05/30 12:59:54;;;;;;;5.22;1.30;;;;;;;;;;5014538;28;20479;-65
2023/05/30 13:02:20;;;;;;;6.22;1.85;;;;;;;;;;5030023;28;20013;-65
2023/05/30 13:04:45;;;;;;;;;;;;;;;;;;5030510;28;20013;-65
2023/05/30 13:07:11;;;;;;;5.20;1.23;;;;;;;;;;5029644;28;19911;-64
2023/05/30 13:09:37;;;;;;;4.63;1.25;;;;;;;;;;5021875;28;20116;-64
2023/05/30 13:12:03;;;;;;;6.13;1.40;;;;;;;;;;5030306;28;20120;-65
2023/05/30 13:14:28;;;;;;;4.05;1.00;;;;;;;;;;5021645;28;20861;-67
2023/05/30 13:16:53;;;;;;;4.43;1.03;;;;;;;;;;5024591;28;20619;-66
2023/05/30 13:19:18;;;;;;;6.60;1.30;;;;;;;;;;5024966;28;20021;-66
2023/05/30 13:21:43;;;;;;;5.67;1.30;;;;;;;;;;5016830;28;20607;-67
2023/05/30 13:24:09;;;;;;;4.77;1.13;;;;;;;;;;5019106;28;20026;-65
2023/05/30 13:26:34;;;;;;;4.37;1.20;;;;;;;;;;5014262;28;20436;-66
2023/05/30 13:29:01;;;;;;;5.68;1.60;;;;;;;;;;5018390;28;20029;-65
2023/05/30 13:31:27;;;;;;;4.78;1.30;;;;;;;;;;5010345;28;20014;-67
2023/05/30 13:33:52;;;;;;;6.00;1.20;;;;;;;;;;5016450;28;20068;-65
2023/05/30 13:36:18;;;;;;;5.30;1.35;;;;;;;;;;5009186;28;20556;-66
2023/05/30 13:38:43;;;;;;;5.35;1.25;;;;;;;;;;5019050;28;20445;-66
2023/05/30 13:41:12;;;;;;;4.10;1.17;;;;;;;;;;5024241;28;20097;-66
2023/05/30 13:43:37;;;;;;;3.97;1.10;;;;;;;;;;5013246;28;20029;-65
2023/05/30 13:46:02;;;;;;;6.67;1.30;;;;;;;;;;5011708;28;20014;-65
2023/05/30 13:48:28;;;;;;;4.80;1.40;;;;;;;;;;5026983;28;20979;-66
2023/05/30 13:50:54;;;;;;;4.03;1.30;;;;;;;;;;5014100;28;20021;-65
2023/05/30 13:53:20;;;;;;;5.28;1.30;;;;;;;;;;5017175;28;20029;-65
2023/05/30 13:55:45;;;;;;;6.20;1.42;;;;;;;;;;5014133;28;20492;-66
2023/05/30 13:58:10;;;;;;;4.43;1.42;;;;;;;;;;5018412;28;20100;-66
2023/05/30 14:00:36;;;;;;;4.23;1.30;;;;;;;;;;5029863;28;20067;-66
2023/05/30 14:03:01;;;;;;;4.95;1.40;;;;;;;;;;5023448;28;20610;-66
2023/05/30 14:05:26;;;;;;;5.20;1.33;;;;;;;;;;5016638;28;20036;-66
2023/05/30 14:07:51;;;;;;;5.90;1.20;;;;;;;;;;5013201;28;20113;-65
2023/05/30 14:10:17;;;;;;;5.67;1.30;;;;;;;;;;5021613;28;21019;-65
2023/05/30 14:12:43;;;;;;;6.18;1.30;;;;;;;;;;5023325;28;20033;-66
2023/05/30 14:15:08;;;;;;;4.32;1.40;;;;;;;;;;5027446;28;20017;-66
2023/05/30 14:17:34;;;;;;;4.40;1.30;;;;;;;;;;5030132;28;20022;-65
2023/05/30 14:19:59;;;;;;;4.37;1.10;;;;;;;;;;5029747;28;20435;-65
2023/05/30 14:22:24;;;;;;;7.17;1.40;;;;;;;;;;5022233;28;20021;-65
2023/05/30 14:24:49;;;;;;;3.50;1.10;;;;;;;;;;5030344;28;20112;-65
2023/05/30 14:27:14;;;;;;;3.60;1.20;;;;;;;;;;5033717;28;20025;-65
2023/05/30 14:29:40;;;;;;;4.63;1.25;;;;;;;;;;5031777;28;20492;-65
2023/05/30 14:32:05;;;;;;;6.17;1.20;;;;;;;;;;5033875;28;20017;-65
2023/05/30 14:34:30;;;;;;;4.50;1.20;;;;;;;;;;5032111;28;20024;-65
2023/05/30 14:36:55;;;;;;;4.07;1.40;;;;;;;;;;5025553;28;20472;-65